Jard de Barcelona, Puerto Rico
Current Conditions -  °F | °C
As of 5:56 PM on Wednesday 28 Jan 2015 (Local Time) from TJSJ Reporting Station
Few Clouds Few Clouds  
Wind Chill: 83°   Ceiling: Unl
Heat Index: 85°   Visibility: 10mi
Dew Point: 66°   Wind: 7mph
Humidity: 56%   Direction: 140°SE
Pressure: 29.95"   Gusts: NA
Location:  18.2339°N, 65.9218°W
Report Text: TJSJ 282156Z 14006KT 10SM FEW042 28/19 A2995 RMK AO2 SLP140 T02830189
Loading
Personal Weather Stations






























Interactive Weather Map New forecast layout! Learn more

10-Day Weather Forecast

Advertisements
Track Severe Weather on mobile